Time;durP1;ratioP1;P1;durP2;ratioP2;P2;SDS_P1;SDS_P2;PMS_P1;PMS_P2;Temp;Humidity;BMP_temperature;BMP_pressure;BME280_temperature;BME280_humidity;BME280_pressure;Samples;Min_cycle;Max_cycle;Signal;HPM_P1;HPM_P2
2022/08/22 00:00:43;;;;;;;;;;;18.50;99.90;;;;;;5013327;28;19932;-70
2022/08/22 00:03:20;;;;;;;;;;;18.50;99.90;;;;;;5011497;28;20305;-70
2022/08/22 00:06:05;;;;;;;;;;;18.50;99.90;;;;;;5005597;28;19926;-70
2022/08/22 00:08:39;;;;;;;;;;;18.40;99.90;;;;;;5009536;28;20378;-70
2022/08/22 00:11:11;;;;;;;;;;;18.30;99.90;;;;;;5010967;28;20024;-70
2022/08/22 00:13:41;;;;;;;;;;;18.30;99.90;;;;;;5003047;28;19933;-70
2022/08/22 00:16:13;;;;;;;;;;;18.20;99.90;;;;;;5019074;28;19925;-71
2022/08/22 00:18:42;;;;;;;;;;;18.20;99.90;;;;;;5027768;28;19931;-70
2022/08/22 00:21:12;;;;;;;;;;;18.20;99.90;;;;;;5022841;28;19925;-70
2022/08/22 00:23:44;;;;;;;;;;;18.20;99.90;;;;;;5007605;28;20292;-70
2022/08/22 00:26:18;;;;;;;;;;;18.20;99.90;;;;;;5005238;28;19933;-69
2022/08/22 00:28:49;;;;;;;;;;;18.10;99.90;;;;;;5026130;28;20460;-68
2022/08/22 00:31:23;;;;;;;;;;;18.00;99.90;;;;;;5021555;28;19926;-70
2022/08/22 00:33:52;;;;;;;;;;;18.00;99.90;;;;;;5020956;28;19933;-70
2022/08/22 00:36:23;;;;;;;;;;;18.00;99.90;;;;;;5027855;28;19929;-67
2022/08/22 00:38:54;;;;;;;;;;;17.90;99.90;;;;;;5006317;28;19925;-67
2022/08/22 00:41:30;;;;;;;;;;;17.90;99.90;;;;;;5027519;28;20359;-70
2022/08/22 00:44:04;;;;;;;;;;;17.90;99.90;;;;;;5030695;28;19926;-70
2022/08/22 00:47:01;;;;;;;;;;;17.90;99.90;;;;;;5013829;28;19933;-70
2022/08/22 00:49:36;;;;;;;;;;;17.80;99.90;;;;;;4971943;28;19926;-70
2022/08/22 00:52:13;;;;;;;;;;;17.70;99.90;;;;;;4997954;28;19933;-70
2022/08/22 00:54:54;;;;;;;;;;;17.70;99.90;;;;;;5011759;28;19933;-70
2022/08/22 00:57:33;;;;;;;;;;;17.60;99.90;;;;;;5025380;28;19925;-70
2022/08/22 01:00:11;;;;;;;;;;;17.60;99.90;;;;;;5019271;28;20025;-70
2022/08/22 01:02:49;;;;;;;;;;;17.60;99.90;;;;;;5029284;28;19925;-70
2022/08/22 01:05:29;;;;;;;;;;;17.60;99.90;;;;;;5024999;28;19932;-70
2022/08/22 01:08:08;;;;;;;;;;;17.60;99.90;;;;;;5035821;28;19976;-70
2022/08/22 01:10:47;;;;;;;;;;;17.50;99.90;;;;;;5027217;28;20344;-70
2022/08/22 01:13:21;;;;;;;;;;;17.40;99.90;;;;;;5000429;28;19925;-70
2022/08/22 01:15:50;;;;;;;;;;;17.30;99.90;;;;;;5025829;28;19930;-69
2022/08/22 01:18:27;;;;;;;;;;;17.30;99.90;;;;;;5011666;28;20347;-70
2022/08/22 01:21:18;;;;;;;;;;;17.20;99.90;;;;;;5008597;28;19926;-69
2022/08/22 01:24:06;;;;;;;;;;;17.10;99.90;;;;;;5008093;28;19926;-70
2022/08/22 01:26:53;;;;;;;;;;;17.00;99.90;;;;;;5023924;28;19925;-70
2022/08/22 01:29:31;;;;;;;;;;;17.00;99.90;;;;;;5024877;28;19926;-70
2022/08/22 01:32:18;;;;;;;;;;;16.90;99.90;;;;;;5021168;28;19976;-70
2022/08/22 01:35:09;;;;;;;;;;;16.90;99.90;;;;;;4987101;28;19929;-70
2022/08/22 01:37:58;;;;;;;;;;;16.80;99.90;;;;;;4994709;28;19925;-69
2022/08/22 01:40:49;;;;;;;;;;;16.70;99.90;;;;;;5003648;28;20451;-70
2022/08/22 01:43:20;;;;;;;;;;;16.70;99.90;;;;;;4992783;28;19970;-70
2022/08/22 01:45:58;;;;;;;;;;;16.70;99.90;;;;;;5027861;28;19933;-70
2022/08/22 01:48:31;;;;;;;;;;;16.60;99.90;;;;;;5017237;28;19929;-70
2022/08/22 01:51:00;;;;;;;;;;;16.60;99.90;;;;;;5026989;28;20347;-70
2022/08/22 01:53:31;;;;;;;;;;;16.60;99.90;;;;;;5017213;28;19929;-67
2022/08/22 01:56:03;;;;;;;;;;;16.60;99.90;;;;;;5039709;28;19925;-70
2022/08/22 01:58:32;;;;;;;;;;;16.60;99.90;;;;;;5012707;28;19933;-70
2022/08/22 02:01:07;;;;;;;;;;;16.60;99.90;;;;;;5026638;28;19926;-70
2022/08/22 02:03:38;;;;;;;;;;;16.60;99.90;;;;;;5024397;28;19926;-70
2022/08/22 02:06:08;;;;;;;;;;;16.60;99.90;;;;;;5005059;28;19932;-70
2022/08/22 02:08:43;;;;;;;;;;;16.60;99.90;;;;;;5023302;28;19926;-70
2022/08/22 02:11:11;;;;;;;;;;;16.60;99.90;;;;;;5020940;28;19970;-70
2022/08/22 02:13:54;;;;;;;;;;;16.60;99.90;;;;;;5026329;28;19929;-70
2022/08/22 02:16:25;;;;;;;;;;;16.60;99.90;;;;;;5025415;28;19925;-70
2022/08/22 02:18:56;;;;;;;;;;;16.60;99.90;;;;;;5027338;28;19925;-69
2022/08/22 02:21:28;;;;;;;;;;;16.50;99.90;;;;;;5013233;28;20404;-70
2022/08/22 02:23:58;;;;;;;;;;;16.50;99.90;;;;;;5014993;28;19925;-70
2022/08/22 02:26:26;;;;;;;;;;;16.50;99.90;;;;;;5015151;28;19932;-69
2022/08/22 02:28:57;;;;;;;;;;;16.50;99.90;;;;;;5009409;28;19997;-70
2022/08/22 02:31:26;;;;;;;;;;;16.50;99.90;;;;;;5014265;28;20361;-69
2022/08/22 02:33:55;;;;;;;;;;;16.50;99.90;;;;;;5006702;28;19941;-70
2022/08/22 02:36:25;;;;;;;;;;;16.50;99.90;;;;;;5021523;28;19979;-70
2022/08/22 02:38:57;;;;;;;;;;;16.50;99.90;;;;;;5027241;28;19929;-68
2022/08/22 02:41:27;;;;;;;;;;;16.50;99.90;;;;;;5006079;28;19968;-70
2022/08/22 02:43:55;;;;;;;;;;;16.50;99.90;;;;;;5025324;28;20019;-70
2022/08/22 02:46:26;;;;;;;;;;;16.50;99.90;;;;;;5027616;28;19929;-70
2022/08/22 02:48:57;;;;;;;;;;;16.50;99.90;;;;;;5026541;28;19925;-70
2022/08/22 02:51:27;;;;;;;;;;;16.40;99.90;;;;;;5029470;28;19932;-70
2022/08/22 02:53:57;;;;;;;;;;;16.40;99.90;;;;;;5019276;28;19930;-70
2022/08/22 02:56:26;;;;;;;;;;;16.40;99.90;;;;;;5020963;28;19929;-70
2022/08/22 02:58:55;;;;;;;;;;;16.40;99.90;;;;;;5019922;28;19925;-70
2022/08/22 03:01:24;;;;;;;;;;;16.40;99.90;;;;;;5022095;28;19943;-70
2022/08/22 03:03:51;;;;;;;;;;;16.40;99.90;;;;;;5003531;28;19929;-70
2022/08/22 03:06:37;;;;;;;;;;;16.40;99.90;;;;;;5017385;28;19976;-70
2022/08/22 03:09:18;;;;;;;;;;;16.40;99.90;;;;;;5017512;28;19926;-70
2022/08/22 03:11:46;;;;;;;;;;;16.40;99.90;;;;;;5008622;28;19926;-70
2022/08/22 03:14:15;;;;;;;;;;;16.40;99.90;;;;;;5019560;28;19932;-70
2022/08/22 03:16:47;;;;;;;;;;;16.40;99.90;;;;;;5001505;28;19925;-67
2022/08/22 03:19:16;;;;;;;;;;;16.40;99.90;;;;;;5015436;28;19932;-70
2022/08/22 03:21:45;;;;;;;;;;;16.40;99.90;;;;;;5035885;28;19941;-70
2022/08/22 03:24:17;;;;;;;;;;;16.40;99.90;;;;;;5017851;28;19932;-70
2022/08/22 03:26:46;;;;;;;;;;;16.40;99.90;;;;;;5011785;28;20370;-70
2022/08/22 03:29:16;;;;;;;;;;;16.40;99.90;;;;;;5036654;23;19935;-70
2022/08/22 03:32:04;;;;;;;;;;;16.40;99.90;;;;;;5053001;28;19962;-73
2022/08/22 03:34:30;;;;;;;;;;;16.40;99.90;;;;;;5046849;28;19929;-72
2022/08/22 03:37:04;;;;;;;;;;;16.30;99.90;;;;;;5053858;28;19978;-72
2022/08/22 03:39:51;;;;;;;;;;;16.30;99.90;;;;;;5047861;28;20316;-73
2022/08/22 03:42:27;;;;;;;;;;;16.20;99.90;;;;;;5045608;28;19925;-72
2022/08/22 03:45:12;;;;;;;;;;;16.20;99.90;;;;;;5033334;28;19924;-73
2022/08/22 03:48:03;;;;;;;;;;;16.20;99.90;;;;;;5040709;28;19925;-72
2022/08/22 03:50:48;;;;;;;;;;;16.20;99.90;;;;;;4965945;28;19930;-72
2022/08/22 03:53:31;;;;;;;;;;;16.10;99.90;;;;;;5035115;28;19925;-72
2022/08/22 03:56:20;;;;;;;;;;;16.10;99.90;;;;;;5032689;28;20372;-72
2022/08/22 03:58:55;;;;;;;;;;;16.10;99.90;;;;;;5041701;28;19929;-73
2022/08/22 04:01:52;;;;;;;;;;;16.00;99.90;;;;;;5041507;28;20081;-72
2022/08/22 04:04:25;;;;;;;;;;;15.90;99.90;;;;;;5029467;28;19940;-72
2022/08/22 04:06:59;;;;;;;;;;;15.80;99.90;;;;;;5033540;28;19925;-72
2022/08/22 04:09:34;;;;;;;;;;;15.80;99.90;;;;;;5036118;28;19925;-72
2022/08/22 04:12:14;;;;;;;;;;;15.80;99.90;;;;;;5042901;28;19924;-72
2022/08/22 04:14:54;;;;;;;;;;;15.80;99.90;;;;;;5036861;28;19925;-73
2022/08/22 04:17:31;;;;;;;;;;;15.70;99.90;;;;;;5036979;28;19929;-72
2022/08/22 04:20:12;;;;;;;;;;;15.60;99.90;;;;;;5031734;28;19925;-70
2022/08/22 04:22:49;;;;;;;;;;;15.60;99.90;;;;;;5034516;28;19932;-73
2022/08/22 04:25:18;;;;;;;;;;;15.60;99.90;;;;;;5041230;28;19925;-72
2022/08/22 04:27:49;;;;;;;;;;;15.50;99.90;;;;;;5044102;28;19940;-72
2022/08/22 04:30:21;;;;;;;;;;;15.60;99.90;;;;;;5042677;28;19925;-72
2022/08/22 04:32:51;;;;;;;;;;;15.60;99.90;;;;;;5038363;28;19951;-70
2022/08/22 04:35:26;;;;;;;;;;;15.50;99.90;;;;;;5033770;28;20011;-72
2022/08/22 04:37:55;;;;;;;;;;;15.50;99.90;;;;;;5037348;28;19975;-72
2022/08/22 04:40:24;;;;;;;;;;;15.50;99.90;;;;;;5034735;28;20028;-72
2022/08/22 04:42:54;;;;;;;;;;;15.50;99.90;;;;;;5048941;28;19925;-73
2022/08/22 04:45:23;;;;;;;;;;;15.50;99.90;;;;;;5036438;28;19925;-72
2022/08/22 04:47:52;;;;;;;;;;;15.40;99.90;;;;;;5042667;28;19929;-72
2022/08/22 04:50:21;;;;;;;;;;;15.40;99.90;;;;;;5034982;28;19931;-72
2022/08/22 04:53:09;;;;;;;;;;;15.40;99.90;;;;;;5035885;28;19924;-72
2022/08/22 04:55:39;;;;;;;;;;;15.40;99.90;;;;;;5040030;28;19926;-72
2022/08/22 04:58:16;;;;;;;;;;;15.40;99.90;;;;;;5039062;28;19936;-71
2022/08/22 05:00:49;;;;;;;;;;;15.50;99.90;;;;;;5042719;28;19933;-71
2022/08/22 05:03:16;;;;;;;;;;;15.60;99.90;;;;;;5031477;28;19925;-70
2022/08/22 05:05:44;;;;;;;;;;;15.60;99.90;;;;;;5040582;28;19937;-71
2022/08/22 05:08:12;;;;;;;;;;;15.70;99.90;;;;;;5035254;28;19925;-71
2022/08/22 05:10:41;;;;;;;;;;;15.70;99.90;;;;;;5039934;28;19925;-71
2022/08/22 05:13:09;;;;;;;;;;;15.80;99.90;;;;;;5038125;28;19929;-71
2022/08/22 05:15:38;;;;;;;;;;;15.80;99.90;;;;;;5039459;28;19925;-71
2022/08/22 05:18:07;;;;;;;;;;;16.00;99.90;;;;;;5033735;28;19932;-71
2022/08/22 05:20:34;;;;;;;;;;;16.00;99.90;;;;;;5038547;28;19947;-72
2022/08/22 05:23:04;;;;;;;;;;;16.00;99.90;;;;;;5034072;28;19932;-70
2022/08/22 05:25:33;;;;;;;;;;;16.00;99.90;;;;;;5031535;28;20384;-71
2022/08/22 05:28:06;;;;;;;;;;;16.00;99.90;;;;;;5037873;28;20404;-72
2022/08/22 05:30:34;;;;;;;;;;;16.00;99.90;;;;;;5041450;28;20373;-73
2022/08/22 05:33:05;;;;;;;;;;;16.00;99.90;;;;;;5035455;28;19947;-72
2022/08/22 05:35:34;;;;;;;;;;;16.10;99.90;;;;;;5033523;28;19925;-73
2022/08/22 05:38:02;;;;;;;;;;;16.10;99.90;;;;;;5038776;28;19953;-71
2022/08/22 05:40:30;;;;;;;;;;;16.20;99.90;;;;;;5043651;28;19932;-72
2022/08/22 05:42:57;;;;;;;;;;;16.20;99.90;;;;;;5042440;28;20351;-72
2022/08/22 05:45:25;;;;;;;;;;;16.30;99.90;;;;;;5037842;28;20388;-69
2022/08/22 05:47:57;;;;;;;;;;;16.40;99.90;;;;;;5045003;28;19952;-71
2022/08/22 05:50:29;;;;;;;;;;;16.40;99.90;;;;;;5040250;28;19924;-71
2022/08/22 05:52:59;;;;;;;;;;;16.50;99.90;;;;;;5029139;28;19948;-72
2022/08/22 05:55:28;;;;;;;;;;;16.60;99.90;;;;;;5038159;28;19925;-72
2022/08/22 05:58:02;;;;;;;;;;;16.70;99.90;;;;;;5039693;28;19929;-72
2022/08/22 06:00:32;;;;;;;;;;;16.80;99.90;;;;;;5043196;28;19929;-76
2022/08/22 06:03:04;;;;;;;;;;;17.00;99.90;;;;;;5037661;28;19929;-72
2022/08/22 06:05:36;;;;;;;;;;;17.00;99.90;;;;;;5039364;28;19928;-73
2022/08/22 06:08:05;;;;;;;;;;;17.10;99.90;;;;;;5038596;28;19925;-73
2022/08/22 06:10:36;;;;;;;;;;;17.20;99.90;;;;;;5040738;28;20393;-74
2022/08/22 06:13:05;;;;;;;;;;;17.30;99.90;;;;;;5036666;28;19932;-74
2022/08/22 06:15:34;;;;;;;;;;;17.40;99.90;;;;;;5052690;28;19947;-73
2022/08/22 06:18:04;;;;;;;;;;;17.60;99.90;;;;;;5032612;28;19925;-73
2022/08/22 06:20:34;;;;;;;;;;;17.70;99.90;;;;;;5036126;28;19925;-74
2022/08/22 06:23:01;;;;;;;;;;;17.80;99.90;;;;;;5040330;28;19948;-75
2022/08/22 06:25:31;;;;;;;;;;;17.90;99.90;;;;;;5044193;28;19924;-74
2022/08/22 06:27:59;;;;;;;;;;;18.00;99.90;;;;;;5034611;28;19948;-73
2022/08/22 06:30:28;;;;;;;;;;;18.10;99.90;;;;;;5041881;28;19925;-73
2022/08/22 06:33:00;;;;;;;;;;;18.20;99.90;;;;;;5034268;28;19925;-74
2022/08/22 06:35:28;;;;;;;;;;;18.40;99.90;;;;;;5035173;28;19924;-74
2022/08/22 06:37:59;;;;;;;;;;;18.50;99.90;;;;;;5037987;28;19932;-73
2022/08/22 06:40:27;;;;;;;;;;;18.70;99.90;;;;;;5037178;28;19933;-74
2022/08/22 06:42:55;;;;;;;;;;;18.90;99.90;;;;;;5038854;28;19970;-75
2022/08/22 06:45:25;;;;;;;;;;;19.00;99.90;;;;;;5039250;28;19936;-74
2022/08/22 06:47:54;;;;;;;;;;;19.10;99.90;;;;;;5029135;28;20011;-73
2022/08/22 06:50:26;;;;;;;;;;;19.30;99.90;;;;;;5037304;28;19924;-74
2022/08/22 06:52:55;;;;;;;;;;;19.40;99.90;;;;;;5036415;28;19995;-74
2022/08/22 06:55:25;;;;;;;;;;;19.70;99.90;;;;;;5042203;28;19932;-73
2022/08/22 06:57:55;;;;;;;;;;;19.90;99.90;;;;;;5036708;28;19925;-73
2022/08/22 07:00:22;;;;;;;;;;;20.10;99.90;;;;;;5041640;28;19925;-73
2022/08/22 07:02:51;;;;;;;;;;;20.30;99.90;;;;;;5040520;28;19931;-73
2022/08/22 07:05:19;;;;;;;;;;;20.40;99.90;;;;;;5042185;28;20304;-73
2022/08/22 07:07:46;;;;;;;;;;;20.60;99.90;;;;;;5043319;28;19925;-72
2022/08/22 07:10:13;;;;;;;;;;;20.90;99.90;;;;;;5039305;28;19935;-72
2022/08/22 07:12:44;;;;;;;;;;;21.10;99.90;;;;;;5045218;28;19925;-72
2022/08/22 07:15:12;;;;;;;;;;;21.30;99.90;;;;;;5038502;28;19925;-73
2022/08/22 07:17:48;;;;;;;;;;;21.50;99.90;;;;;;5039316;28;19932;-71
2022/08/22 07:20:18;;;;;;;;;;;21.60;99.90;;;;;;5044844;28;19975;-72
2022/08/22 07:22:53;;;;;;;;;;;21.70;99.90;;;;;;5038781;28;19931;-73
2022/08/22 07:25:20;;;;;;;;;;;21.80;99.90;;;;;;5047368;28;20024;-73
2022/08/22 07:27:53;;;;;;;;;;;21.90;99.90;;;;;;5035477;28;19926;-73
2022/08/22 07:30:21;;;;;;;;;;;22.00;99.90;;;;;;5039700;28;19925;-73
2022/08/22 07:32:51;;;;;;;;;;;22.10;99.90;;;;;;5032625;28;19925;-72
2022/08/22 07:35:20;;;;;;;;;;;22.20;99.90;;;;;;5038648;28;19925;-73
2022/08/22 07:37:55;;;;;;;;;;;22.20;99.90;;;;;;5047093;28;19928;-74
2022/08/22 07:40:24;;;;;;;;;;;22.30;99.90;;;;;;5039522;28;19925;-73
2022/08/22 07:42:56;;;;;;;;;;;22.40;99.90;;;;;;5042095;28;19925;-72
2022/08/22 07:45:30;;;;;;;;;;;22.50;99.90;;;;;;5040576;28;19932;-72
2022/08/22 07:48:03;;;;;;;;;;;22.60;99.90;;;;;;5047815;28;19943;-75
2022/08/22 07:50:31;;;;;;;;;;;22.70;99.90;;;;;;5042402;28;19929;-74
2022/08/22 07:53:10;;;;;;;;;;;22.80;99.90;;;;;;5038342;28;19982;-74
2022/08/22 07:55:37;;;;;;;;;;;23.00;99.90;;;;;;5037466;28;19928;-74
2022/08/22 07:58:07;;;;;;;;;;;23.10;99.90;;;;;;5037934;28;19936;-75
2022/08/22 08:00:34;;;;;;;;;;;23.20;99.90;;;;;;5041662;28;19928;-72
2022/08/22 08:03:02;;;;;;;;;;;23.20;99.90;;;;;;5037823;28;19925;-74
2022/08/22 08:05:31;;;;;;;;;;;23.20;99.90;;;;;;5039235;28;19940;-74
2022/08/22 08:07:59;;;;;;;;;;;23.20;99.90;;;;;;5036346;28;19979;-74
2022/08/22 08:10:30;;;;;;;;;;;23.30;99.90;;;;;;5037483;28;19944;-74
2022/08/22 08:12:59;;;;;;;;;;;23.30;99.90;;;;;;5041072;28;19925;-75
2022/08/22 08:15:27;;;;;;;;;;;23.40;99.90;;;;;;5040012;28;19983;-71
2022/08/22 08:17:58;;;;;;;;;;;23.50;99.90;;;;;;5040376;28;19927;-72
2022/08/22 08:20:27;;;;;;;;;;;23.60;99.90;;;;;;5038011;28;19925;-74
2022/08/22 08:22:54;;;;;;;;;;;23.60;99.90;;;;;;5034464;28;20351;-72
2022/08/22 08:25:22;;;;;;;;;;;23.70;99.90;;;;;;5041176;28;19932;-73
2022/08/22 08:30:38;;;;;;;;;;;23.80;99.90;;;;;;5036814;28;20010;-75
2022/08/22 08:33:06;;;;;;;;;;;23.90;99.90;;;;;;5036747;28;19925;-73
2022/08/22 08:35:37;;;;;;;;;;;23.90;99.90;;;;;;5044510;28;19925;-72
2022/08/22 08:38:07;;;;;;;;;;;24.00;99.90;;;;;;5040181;28;19925;-72
2022/08/22 08:40:49;;;;;;;;;;;24.00;99.90;;;;;;5032719;28;19968;-73
2022/08/22 08:43:30;;;;;;;;;;;24.00;99.90;;;;;;5032475;28;19932;-73
2022/08/22 08:46:10;;;;;;;;;;;24.00;99.90;;;;;;5035454;28;19936;-73
2022/08/22 08:48:48;;;;;;;;;;;24.10;99.90;;;;;;5042553;28;19925;-73
2022/08/22 08:51:22;;;;;;;;;;;24.20;99.90;;;;;;5033980;28;19983;-72
2022/08/22 08:53:57;;;;;;;;;;;24.30;99.90;;;;;;5046379;28;19932;-70
2022/08/22 08:56:28;;;;;;;;;;;24.30;99.90;;;;;;5039693;28;19940;-73
2022/08/22 08:59:00;;;;;;;;;;;24.40;99.90;;;;;;5033119;28;19925;-71
2022/08/22 09:01:36;;;;;;;;;;;24.50;99.90;;;;;;5041307;28;20040;-72
2022/08/22 09:04:18;;;;;;;;;;;24.60;99.90;;;;;;5043700;28;20408;-73
2022/08/22 09:06:55;;;;;;;;;;;24.40;99.90;;;;;;5042484;28;20024;-72
2022/08/22 09:09:29;;;;;;;;;;;24.30;99.90;;;;;;5034286;28;19925;-73
2022/08/22 09:12:06;;;;;;;;;;;24.40;99.90;;;;;;5032668;28;19925;-73
2022/08/22 09:14:42;;;;;;;;;;;24.60;99.90;;;;;;5035511;28;19972;-72
2022/08/22 09:17:21;;;;;;;;;;;24.70;99.90;;;;;;5043970;28;19925;-73
2022/08/22 09:20:01;;;;;;;;;;;24.70;99.90;;;;;;5032648;28;19932;-71
2022/08/22 09:22:38;;;;;;;;;;;24.80;99.90;;;;;;5043058;28;19933;-73
2022/08/22 09:25:21;;;;;;;;;;;25.10;99.90;;;;;;5037189;28;19933;-73
2022/08/22 09:27:51;;;;;;;;;;;25.40;99.90;;;;;;5035573;28;20332;-71
2022/08/22 09:30:19;;;;;;;;;;;25.50;99.90;;;;;;5035534;28;19925;-73
2022/08/22 09:32:53;;;;;;;;;;;25.50;99.90;;;;;;5044708;28;20282;-72
2022/08/22 09:35:24;;;;;;;;;;;25.40;99.90;;;;;;5037433;28;19925;-73
2022/08/22 09:37:59;;;;;;;;;;;25.50;99.90;;;;;;5028026;28;20367;-73
2022/08/22 09:40:28;;;;;;;;;;;25.70;99.90;;;;;;5034860;28;19925;-73
2022/08/22 09:43:00;;;;;;;;;;;25.80;99.90;;;;;;5042280;28;19925;-73
2022/08/22 09:45:39;;;;;;;;;;;25.80;99.90;;;;;;5041641;28;19968;-75
2022/08/22 09:48:10;;;;;;;;;;;25.90;99.90;;;;;;5034729;28;20464;-74
2022/08/22 09:50:45;;;;;;;;;;;26.00;99.90;;;;;;5044641;28;19932;-74
2022/08/22 09:53:14;;;;;;;;;;;26.40;99.90;;;;;;5035885;28;19936;-73
2022/08/22 09:55:44;;;;;;;;;;;26.50;99.90;;;;;;5037104;28;19926;-73
2022/08/22 09:58:18;;;;;;;;;;;26.70;99.90;;;;;;5035331;28;19929;-73
2022/08/22 10:00:50;;;;;;;;;;;26.90;99.90;;;;;;5034006;28;19932;-73
2022/08/22 10:03:23;;;;;;;;;;;27.10;99.90;;;;;;5042972;28;20353;-74
2022/08/22 10:05:54;;;;;;;;;;;27.30;99.90;;;;;;5037631;28;19931;-74
2022/08/22 10:08:38;;;;;;;;;;;27.70;99.90;;;;;;5044717;28;19928;-74
2022/08/22 10:11:23;;;;;;;;;;;28.00;99.90;;;;;;5032763;28;19925;-73
2022/08/22 10:13:54;;;;;;;;;;;28.30;99.90;;;;;;5027531;28;19932;-74
2022/08/22 10:16:25;;;;;;;;;;;28.60;99.90;;;;;;5035711;28;19924;-74
2022/08/22 10:19:01;;;;;;;;;;;28.90;99.90;;;;;;5037002;28;19929;-72
2022/08/22 10:21:34;;;;;;;;;;;28.90;99.90;;;;;;5038862;28;19940;-73
2022/08/22 10:24:03;;;;;;;;;;;28.90;99.90;;;;;;5037750;28;19925;-73
2022/08/22 10:26:33;;;;;;;;;;;28.70;99.90;;;;;;5035179;28;19924;-72
2022/08/22 10:29:06;;;;;;;;;;;28.60;99.90;;;;;;5036916;28;19925;-73
2022/08/22 10:31:37;;;;;;;;;;;28.60;99.90;;;;;;5037344;28;20205;-73
2022/08/22 10:34:11;;;;;;;;;;;29.10;99.90;;;;;;5041420;28;19925;-73
2022/08/22 10:36:46;;;;;;;;;;;29.50;99.90;;;;;;5037175;28;19933;-73
2022/08/22 10:39:16;;;;;;;;;;;29.70;99.90;;;;;;5036033;28;19947;-74
2022/08/22 10:41:47;;;;;;;;;;;30.00;99.90;;;;;;5032877;28;19933;-73
2022/08/22 10:44:15;;;;;;;;;;;30.00;99.90;;;;;;5042646;28;20297;-73
2022/08/22 10:46:48;;;;;;;;;;;30.20;99.90;;;;;;5042368;28;20316;-74
2022/08/22 10:49:21;;;;;;;;;;;30.20;99.90;;;;;;5039478;28;19933;-73
2022/08/22 10:51:51;;;;;;;;;;;30.30;99.90;;;;;;5039815;28;19926;-73
2022/08/22 10:54:27;;;;;;;;;;;30.20;99.90;;;;;;5035805;28;19925;-75
2022/08/22 10:56:56;;;;;;;;;;;29.60;99.90;;;;;;5037104;28;19925;-74
2022/08/22 10:59:28;;;;;;;;;;;29.50;99.90;;;;;;5035080;28;19925;-73
2022/08/22 11:02:01;;;;;;;;;;;29.60;99.90;;;;;;5033206;28;19936;-74
2022/08/22 11:04:37;;;;;;;;;;;29.20;99.90;;;;;;5042004;28;19933;-74
2022/08/22 11:07:12;;;;;;;;;;;29.00;99.90;;;;;;5042893;28;19929;-72
2022/08/22 11:09:40;;;;;;;;;;;28.90;99.90;;;;;;5035998;28;19926;-75
2022/08/22 11:12:13;;;;;;;;;;;29.00;99.90;;;;;;5035905;28;19929;-74
2022/08/22 11:14:52;;;;;;;;;;;29.10;99.90;;;;;;5037978;28;19983;-75
2022/08/22 11:17:26;;;;;;;;;;;29.20;99.90;;;;;;5035207;28;19929;-74
2022/08/22 11:20:04;;;;;;;;;;;29.20;99.90;;;;;;5031165;28;19932;-74
2022/08/22 11:22:38;;;;;;;;;;;29.50;99.90;;;;;;5054613;28;20381;-74
2022/08/22 11:25:14;;;;;;;;;;;29.30;99.90;;;;;;5033933;28;19933;-74
2022/08/22 11:27:49;;;;;;;;;;;29.20;99.90;;;;;;5052946;28;19925;-73
2022/08/22 11:30:18;;;;;;;;;;;29.60;99.90;;;;;;5033571;28;19925;-74
2022/08/22 11:33:03;;;;;;;;;;;30.50;99.90;;;;;;5044028;28;19925;-74
2022/08/22 11:35:34;;;;;;;;;;;31.40;99.90;;;;;;5038066;28;19925;-74
2022/08/22 11:38:02;;;;;;;;;;;32.20;99.90;;;;;;5033745;28;19925;-74
2022/08/22 11:40:36;;;;;;;;;;;33.50;99.90;;;;;;5042116;28;19929;-74
2022/08/22 11:43:10;;;;;;;;;;;33.80;99.90;;;;;;5036579;28;20431;-74
2022/08/22 11:45:40;;;;;;;;;;;34.10;99.90;;;;;;5037117;28;20296;-74
2022/08/22 11:48:09;;;;;;;;;;;33.60;99.90;;;;;;5043034;28;19974;-74
2022/08/22 11:50:39;;;;;;;;;;;33.30;99.90;;;;;;5036868;28;19925;-74
2022/08/22 11:53:14;;;;;;;;;;;33.30;99.90;;;;;;5037464;28;19932;-76
2022/08/22 11:55:45;;;;;;;;;;;34.70;99.90;;;;;;5041922;28;19926;-74
2022/08/22 11:58:27;;;;;;;;;;;35.90;99.90;;;;;;5037887;28;19937;-74
2022/08/22 12:00:55;;;;;;;;;;;36.70;99.90;;;;;;5036946;28;19932;-73
2022/08/22 12:03:36;;;;;;;;;;;36.60;99.90;;;;;;5040376;28;19929;-74
2022/08/22 12:06:06;;;;;;;;;;;36.00;99.90;;;;;;5041964;28;19936;-75
2022/08/22 12:09:03;;;;;;;;;;;35.70;99.90;;;;;;5042884;28;19936;-74
2022/08/22 12:11:35;;;;;;;;;;;35.50;99.90;;;;;;5037747;28;19924;-74
2022/08/22 12:14:03;;;;;;;;;;;35.60;99.90;;;;;;5042125;28;19932;-75
2022/08/22 12:16:37;;;;;;;;;;;36.10;99.90;;;;;;5041848;28;19929;-74
2022/08/22 12:19:11;;;;;;;;;;;36.30;99.90;;;;;;5035228;28;19925;-75
2022/08/22 12:22:02;;;;;;;;;;;35.50;99.90;;;;;;5035931;28;19925;-74
2022/08/22 12:24:34;;;;;;;;;;;35.70;99.90;;;;;;5040488;28;19928;-74
2022/08/22 12:27:13;;;;;;;;;;;36.40;99.90;;;;;;5040712;28;19925;-74
2022/08/22 12:29:43;;;;;;;;;;;36.60;99.90;;;;;;5039256;28;19925;-72
2022/08/22 12:32:43;;;;;;;;;;;37.10;99.30;;;;;;5042111;28;19925;-74
2022/08/22 12:35:17;;;;;;;;;;;37.80;99.00;;;;;;4944224;28;19957;-74
2022/08/22 12:37:48;;;;;;;;;;;37.00;99.20;;;;;;4957368;28;19934;-74
2022/08/22 12:40:24;;;;;;;;;;;36.50;98.20;;;;;;4992564;28;19925;-73
2022/08/22 12:43:03;;;;;;;;;;;35.80;98.50;;;;;;5031350;28;19932;-74
2022/08/22 12:45:40;;;;;;;;;;;35.60;98.90;;;;;;5045598;28;20350;-74
2022/08/22 12:48:13;;;;;;;;;;;37.20;98.30;;;;;;5036233;28;20364;-75
2022/08/22 12:50:43;;;;;;;;;;;38.20;97.70;;;;;;5045623;28;19924;-74
2022/08/22 12:53:19;;;;;;;;;;;39.10;97.10;;;;;;5037010;28;19936;-75
2022/08/22 12:55:53;;;;;;;;;;;39.70;96.40;;;;;;5034682;28;19929;-74
2022/08/22 12:58:28;;;;;;;;;;;39.90;95.80;;;;;;5039420;28;19925;-73
2022/08/22 13:00:58;;;;;;;;;;;40.70;96.30;;;;;;5038618;28;20392;-73
2022/08/22 13:03:28;;;;;;;;;;;40.80;95.00;;;;;;5045259;28;19924;-73
2022/08/22 13:05:55;;;;;;;;;;;40.90;96.00;;;;;;5036980;28;19979;-74
2022/08/22 13:08:29;;;;;;;;;;;41.50;95.30;;;;;;5038204;28;19925;-74
2022/08/22 13:10:57;;;;;;;;;;;41.80;94.80;;;;;;5036362;28;19925;-73
2022/08/22 13:13:26;;;;;;;;;;;39.90;94.40;;;;;;5043164;28;20019;-75
2022/08/22 13:15:55;;;;;;;;;;;38.30;94.70;;;;;;5038791;28;20396;-73
2022/08/22 13:18:24;;;;;;;;;;;38.10;94.90;;;;;;5039107;28;19929;-73
2022/08/22 13:20:52;;;;;;;;;;;38.50;94.80;;;;;;5030359;28;19925;-73
2022/08/22 13:23:22;;;;;;;;;;;38.20;94.60;;;;;;5034078;28;19929;-73
2022/08/22 13:26:00;;;;;;;;;;;38.00;94.70;;;;;;5036225;28;19932;-72
2022/08/22 13:28:28;;;;;;;;;;;37.10;94.70;;;;;;5036505;28;20371;-73
2022/08/22 13:30:55;;;;;;;;;;;37.40;94.80;;;;;;5035646;28;19932;-73
2022/08/22 13:33:25;;;;;;;;;;;37.80;94.40;;;;;;5037884;28;19933;-74
2022/08/22 13:35:53;;;;;;;;;;;37.20;94.30;;;;;;5035726;28;19933;-74
2022/08/22 13:38:22;;;;;;;;;;;36.10;94.40;;;;;;5038474;28;19929;-75
2022/08/22 13:40:50;;;;;;;;;;;35.20;94.70;;;;;;5038995;28;19925;-72
2022/08/22 13:43:21;;;;;;;;;;;34.90;95.20;;;;;;5040725;28;19925;-74
2022/08/22 13:45:52;;;;;;;;;;;34.40;95.80;;;;;;5043233;28;19925;-74
2022/08/22 13:48:21;;;;;;;;;;;34.20;95.40;;;;;;5038780;28;19925;-74
2022/08/22 13:50:56;;;;;;;;;;;34.30;95.90;;;;;;5029395;28;19979;-74
2022/08/22 13:53:27;;;;;;;;;;;35.10;96.20;;;;;;5037706;28;19925;-70
2022/08/22 13:55:57;;;;;;;;;;;37.00;95.30;;;;;;5032803;28;19928;-70
2022/08/22 13:58:29;;;;;;;;;;;37.80;94.80;;;;;;5039694;28;19929;-70
2022/08/22 14:01:02;;;;;;;;;;;37.90;94.50;;;;;;5033070;28;20347;-70
2022/08/22 14:03:35;;;;;;;;;;;38.40;94.20;;;;;;5035670;28;20032;-70
2022/08/22 14:06:09;;;;;;;;;;;39.10;93.60;;;;;;5040337;28;20443;-71
2022/08/22 14:08:36;;;;;;;;;;;38.50;93.50;;;;;;5039302;28;19929;-71
2022/08/22 14:11:10;;;;;;;;;;;37.60;93.60;;;;;;5032257;28;19936;-71
2022/08/22 14:13:44;;;;;;;;;;;36.60;93.90;;;;;;5033657;28;19925;-71
2022/08/22 14:16:13;;;;;;;;;;;35.70;94.30;;;;;;5033716;28;19925;-71
2022/08/22 14:18:42;;;;;;;;;;;35.20;94.80;;;;;;5040251;28;20465;-70
2022/08/22 14:21:18;;;;;;;;;;;35.40;94.90;;;;;;5039001;28;19929;-74
2022/08/22 14:23:46;;;;;;;;;;;35.40;94.50;;;;;;5041473;28;19959;-72
2022/08/22 14:26:22;;;;;;;;;;;36.00;94.70;;;;;;5039280;28;19925;-71
2022/08/22 14:28:50;;;;;;;;;;;37.60;94.30;;;;;;5040774;28;19932;-71
2022/08/22 14:31:23;;;;;;;;;;;39.30;93.90;;;;;;5039263;28;19926;-71
2022/08/22 14:33:52;;;;;;;;;;;40.50;92.70;;;;;;5037433;28;19932;-71
2022/08/22 14:36:20;;;;;;;;;;;40.80;92.30;;;;;;5040445;28;19925;-76
2022/08/22 14:38:50;;;;;;;;;;;40.00;92.40;;;;;;5038849;28;20047;-69
2022/08/22 14:41:23;;;;;;;;;;;38.70;92.60;;;;;;5041798;28;19924;-69
2022/08/22 14:43:53;;;;;;;;;;;37.40;92.90;;;;;;5028022;28;19928;-70
2022/08/22 14:46:23;;;;;;;;;;;36.80;93.30;;;;;;5034036;28;19925;-70
2022/08/22 14:49:05;;;;;;;;;;;35.80;93.50;;;;;;5029760;28;19924;-70
2022/08/22 14:51:32;;;;;;;;;;;35.00;93.90;;;;;;5035729;28;19929;-70